Time;durP1;ratioP1;P1;durP2;ratioP2;P2;SDS_P1;SDS_P2;PMS_P1;PMS_P2;Temp;Humidity;BMP_temperature;BMP_pressure;BME280_temperature;BME280_humidity;BME280_pressure;Samples;Min_cycle;Max_cycle;Signal;HPM_P1;HPM_P2
2022/05/19 00:00:23;;;;;;;5.75;5.55;;;;;;;8.85;77.08;101687.47;5032518;28;20021;-62
2022/05/19 00:02:49;;;;;;;5.93;5.72;;;;;;;8.89;76.81;101693.34;5032678;28;20041;-62
2022/05/19 00:05:15;;;;;;;5.88;5.68;;;;;;;8.75;77.34;101689.28;5032284;28;20570;-63
2022/05/19 00:07:41;;;;;;;5.90;5.70;;;;;;;8.55;77.86;101676.94;5032169;28;20546;-62
2022/05/19 00:10:07;;;;;;;5.90;5.70;;;;;;;8.63;78.28;101690.31;5032309;28;20068;-61
2022/05/19 00:12:33;;;;;;;5.80;5.60;;;;;;;8.49;79.05;101698.63;5031780;28;20021;-63
2022/05/19 00:14:59;;;;;;;5.90;5.70;;;;;;;8.45;79.05;101695.41;5024999;28;20030;-62
2022/05/19 00:17:25;;;;;;;6.07;5.80;;;;;;;8.38;80.08;101696.91;5025956;28;20030;-61
2022/05/19 00:19:51;;;;;;;5.80;5.60;;;;;;;8.41;79.61;101706.38;5032000;28;20025;-62
2022/05/19 00:22:17;;;;;;;5.75;5.55;;;;;;;8.38;78.82;101694.28;5032188;28;20021;-61
2022/05/19 00:24:43;;;;;;;5.70;5.50;;;;;;;8.31;78.27;101699.22;5031888;28;20026;-61
2022/05/19 00:27:08;;;;;;;5.80;5.60;;;;;;;8.34;79.15;101706.03;5032217;28;20028;-61
2022/05/19 00:29:34;;;;;;;5.90;5.70;;;;;;;8.34;78.43;101710.47;5026070;28;20061;-62
2022/05/19 00:31:59;;;;;;;5.97;5.78;;;;;;;8.31;78.50;101703.66;5026558;28;20116;-61
2022/05/19 00:34:25;;;;;;;5.68;5.47;;;;;;;8.27;78.51;101702.25;5028917;28;20137;-61
2022/05/19 00:37:02;;;;;;;5.90;5.70;;;;;;;8.33;78.34;101714.94;5022421;28;20033;-61
2022/05/19 00:39:28;;;;;;;5.78;5.57;;;;;;;8.23;79.13;101709.59;5032048;28;20031;-62
2022/05/19 00:44:40;;;;;;;6.00;5.80;;;;;;;8.24;79.02;101716.56;5031981;28;20052;-62
2022/05/19 00:47:12;;;;;;;6.05;5.82;;;;;;;8.24;79.47;101710.44;5022569;28;20034;-63
2022/05/19 00:49:42;;;;;;;6.00;5.80;;;;;;;8.21;79.67;101711.53;5028577;28;20028;-64
2022/05/19 00:52:12;;;;;;;5.93;5.72;;;;;;;8.25;79.20;101710.31;5018220;28;20025;-62
2022/05/19 00:54:46;;;;;;;5.97;5.78;;;;;;;8.22;79.34;101717.63;5032020;28;20038;-61
2022/05/19 00:57:20;;;;;;;5.70;5.50;;;;;;;8.16;80.26;101702.31;5028570;28;20112;-61
2022/05/19 00:59:54;;;;;;;6.03;5.75;;;;;;;8.23;80.03;101714.06;5026273;28;20039;-61
2022/05/19 01:02:24;;;;;;;5.78;5.57;;;;;;;8.20;79.35;101714.31;5031732;28;20025;-61
2022/05/19 01:05:01;;;;;;;5.70;5.50;;;;;;;8.18;80.49;101711.78;5031850;28;20777;-62
2022/05/19 01:07:52;;;;;;;5.82;5.63;;;;;;;8.09;81.51;101706.47;5023651;28;20406;-62
2022/05/19 01:10:18;;;;;;;5.95;5.72;;;;;;;8.03;81.70;101708.63;5018738;28;20034;-62
2022/05/19 01:12:47;;;;;;;5.63;5.43;;;;;;;8.10;81.29;101718.69;5035364;28;20044;-63
2022/05/19 01:15:14;;;;;;;5.93;5.72;;;;;;;8.11;81.23;101709.81;5035378;28;20035;-61
2022/05/19 01:17:40;;;;;;;5.88;5.68;;;;;;;8.10;81.84;101722.19;5035867;28;20041;-64
2022/05/19 01:20:20;;;;;;;5.68;5.47;;;;;;;8.02;81.11;101717.53;5035383;28;20535;-62
2022/05/19 01:22:51;;;;;;;5.85;5.65;;;;;;;7.95;82.51;101724.31;5035355;28;20024;-62
2022/05/19 01:25:21;;;;;;;5.70;5.50;;;;;;;7.87;82.50;101724.09;5035284;28;20029;-62
2022/05/19 01:27:47;;;;;;;5.80;5.60;;;;;;;7.80;82.50;101715.00;5035168;28;20029;-62
2022/05/19 01:30:13;;;;;;;5.85;5.65;;;;;;;7.78;82.00;101719.56;5035314;28;20582;-62
2022/05/19 01:32:39;;;;;;;5.85;5.65;;;;;;;7.83;81.87;101722.69;5021908;28;20021;-62
2022/05/19 01:35:05;;;;;;;5.82;5.63;;;;;;;7.87;81.07;101718.81;5034094;28;20128;-61
2022/05/19 01:37:31;;;;;;;5.82;5.63;;;;;;;7.88;81.05;101715.22;5035040;28;20085;-62
2022/05/19 01:40:02;;;;;;;5.78;5.57;;;;;;;7.88;81.20;101722.31;5035130;28;20511;-61
2022/05/19 01:42:37;;;;;;;5.57;5.38;;;;;;;7.89;80.53;101726.63;5035083;28;20013;-62
2022/05/19 01:45:18;;;;;;;5.80;5.60;;;;;;;7.84;81.60;101720.88;5034812;28;20132;-64
2022/05/19 01:47:50;;;;;;;5.75;5.55;;;;;;;7.80;81.93;101722.94;5055399;28;20658;-62
2022/05/19 01:50:28;;;;;;;5.85;5.65;;;;;;;7.73;81.90;101730.53;5034756;28;20029;-62
2022/05/19 01:52:57;;;;;;;5.75;5.55;;;;;;;7.72;81.65;101713.00;5034660;28;20036;-64
2022/05/19 01:55:44;;;;;;;5.70;5.50;;;;;;;7.72;82.16;101728.03;5034920;28;20033;-63
2022/05/19 01:58:15;;;;;;;6.00;5.78;;;;;;;7.73;81.40;101722.59;5022052;28;20026;-61
2022/05/19 02:00:42;;;;;;;6.13;5.82;;;;;;;7.74;81.94;101729.56;5034662;28;20045;-62
2022/05/19 02:03:19;;;;;;;6.30;6.00;;;;;;;7.71;81.78;101721.91;5033155;28;20429;-62
2022/05/19 02:06:17;;;;;;;5.60;5.40;;;;;;;7.73;81.98;101733.16;5034519;28;20061;-63
2022/05/19 02:08:49;;;;;;;5.72;5.53;;;;;;;7.73;81.67;101740.25;5025158;28;20513;-62
2022/05/19 02:11:21;;;;;;;5.70;5.50;;;;;;;7.75;81.64;101736.53;5034474;28;20105;-63
2022/05/19 02:13:48;;;;;;;5.65;5.45;;;;;;;7.73;82.15;101745.53;5030586;28;20088;-62
2022/05/19 02:16:15;;;;;;;5.55;5.35;;;;;;;7.78;81.57;101747.78;5034012;28;20083;-63
2022/05/19 02:18:43;;;;;;;6.10;5.80;;;;;;;7.78;81.91;101751.25;5025777;28;20026;-62
2022/05/19 02:21:09;;;;;;;5.63;5.43;;;;;;;7.76;81.74;101750.56;5033080;28;20103;-62
2022/05/19 02:23:36;;;;;;;6.30;6.00;;;;;;;7.74;82.28;101747.22;5033837;28;20052;-62
2022/05/19 02:26:02;;;;;;;5.85;5.65;;;;;;;7.72;82.40;101750.00;5034186;28;20025;-61
2022/05/19 02:28:38;;;;;;;6.10;5.80;;;;;;;7.79;82.01;101754.78;5034094;28;20022;-62
2022/05/19 02:31:04;;;;;;;5.72;5.53;;;;;;;7.58;83.35;101760.84;5034164;28;20071;-62
2022/05/19 02:33:29;;;;;;;8.05;7.65;;;;;;;7.56;83.53;101760.09;5030712;28;20034;-61
2022/05/19 02:35:55;;;;;;;5.90;5.70;;;;;;;7.50;84.01;101758.00;5024158;28;20033;-60
2022/05/19 02:38:22;;;;;;;6.13;5.82;;;;;;;7.55;84.55;101761.06;5034021;28;20053;-61
2022/05/19 02:40:48;;;;;;;5.60;5.40;;;;;;;7.64;84.25;101764.78;5033761;28;20017;-63
2022/05/19 02:43:15;;;;;;;5.70;5.50;;;;;;;7.99;82.19;101770.63;5033078;28;20022;-62
2022/05/19 02:45:41;;;;;;;6.00;5.80;;;;;;;8.09;81.18;101773.38;5033807;28;20029;-62
2022/05/19 02:48:08;;;;;;;6.13;5.82;;;;;;;8.35;80.37;101763.25;5033773;28;20028;-61
2022/05/19 02:50:34;;;;;;;5.80;5.60;;;;;;;8.66;78.02;101765.94;5020443;28;20060;-62
2022/05/19 02:53:00;;;;;;;5.95;5.75;;;;;;;8.98;77.06;101769.28;5020127;28;20078;-62
2022/05/19 02:55:26;;;;;;;5.80;5.60;;;;;;;8.76;76.71;101761.53;5033533;28;20025;-62
2022/05/19 02:57:52;;;;;;;5.63;5.43;;;;;;;9.48;74.08;101769.28;5033600;28;20075;-61
2022/05/19 03:00:22;;;;;;;5.80;5.60;;;;;;;9.69;72.67;101780.59;5033447;28;20029;-61
2022/05/19 03:02:49;;;;;;;5.60;5.40;;;;;;;9.96;71.08;101781.72;5028825;28;20485;-62
2022/05/19 03:05:21;;;;;;;5.88;5.68;;;;;;;10.31;69.11;101783.81;5033090;28;20021;-62
2022/05/19 03:07:46;;;;;;;5.75;5.55;;;;;;;10.67;67.89;101786.66;5033246;28;20570;-62
2022/05/19 03:10:12;;;;;;;5.93;5.72;;;;;;;11.24;65.57;101787.41;5033349;28;20124;-60
2022/05/19 03:12:38;;;;;;;6.38;6.07;;;;;;;11.74;62.68;101786.94;5032961;28;20484;-61
2022/05/19 03:15:04;;;;;;;6.55;6.25;;;;;;;13.43;57.15;101788.22;5033462;28;20033;-61
2022/05/19 03:17:30;;;;;;;6.38;6.10;;;;;;;14.64;52.24;101799.16;5033132;28;20585;-61
2022/05/19 03:19:57;;;;;;;6.57;6.28;;;;;;;15.76;49.02;101789.97;5032948;28;20100;-61
2022/05/19 03:22:25;;;;;;;6.50;6.20;;;;;;;16.23;47.33;101799.63;5033376;28;20401;-62
2022/05/19 03:24:50;;;;;;;6.45;6.15;;;;;;;17.06;44.94;101795.97;5019502;28;20025;-62
2022/05/19 03:27:16;;;;;;;6.40;6.10;;;;;;;17.12;44.00;101798.75;5032987;28;20109;-62
2022/05/19 03:29:42;;;;;;;6.60;6.30;;;;;;;17.82;42.73;101799.97;5019249;28;20396;-62
2022/05/19 03:32:07;;;;;;;6.55;6.25;;;;;;;18.70;40.66;101808.56;5037827;28;20031;-62
2022/05/19 03:34:33;;;;;;;6.80;6.50;;;;;;;18.63;40.56;101802.28;5029689;28;20033;-61
2022/05/19 03:37:03;;;;;;;6.75;6.45;;;;;;;19.01;39.48;101822.41;5022353;28;20469;-62
2022/05/19 03:39:29;;;;;;;6.60;6.30;;;;;;;19.37;38.35;101815.13;5032456;28;20127;-63
2022/05/19 03:41:54;;;;;;;6.60;6.30;;;;;;;20.28;36.70;101815.56;5028625;28;20124;-65
2022/05/19 03:44:19;;;;;;;6.80;6.50;;;;;;;20.97;35.04;101818.59;5028292;28;20076;-62
2022/05/19 03:46:45;;;;;;;6.80;6.50;;;;;;;21.01;34.88;101819.00;5032696;28;20083;-62
2022/05/19 03:49:13;;;;;;;6.90;6.60;;;;;;;22.43;32.68;101817.78;5032458;28;20545;-62
2022/05/19 03:51:40;;;;;;;7.07;6.78;;;;;;;22.83;31.87;101820.09;5031276;28;20060;-63
2022/05/19 03:54:07;;;;;;;6.95;6.65;;;;;;;23.14;30.94;101822.69;5032797;28;20045;-62
2022/05/19 03:56:33;;;;;;;7.10;6.80;;;;;;;22.87;31.31;101826.75;5032267;28;20028;-62
2022/05/19 03:58:59;;;;;;;7.10;6.80;;;;;;;23.23;30.37;101830.50;5032672;28;20017;-62
2022/05/19 04:01:25;;;;;;;6.80;6.50;;;;;;;23.21;30.19;101829.88;5031762;28;20025;-63
2022/05/19 04:03:51;;;;;;;7.20;6.90;;;;;;;22.92;30.14;101824.19;5032186;28;20032;-63
2022/05/19 04:06:18;;;;;;;7.15;6.85;;;;;;;23.37;29.70;101829.28;5032317;28;20104;-62
2022/05/19 04:08:43;;;;;;;7.28;6.97;;;;;;;23.57;29.26;101831.72;5032031;28;20029;-63
2022/05/19 04:11:09;;;;;;;6.85;6.55;;;;;;;24.63;28.15;101835.53;5032252;28;20030;-63
2022/05/19 04:13:35;;;;;;;7.05;6.75;;;;;;;23.85;28.95;101837.38;5031752;28;20485;-62
2022/05/19 04:16:01;;;;;;;7.18;6.88;;;;;;;23.93;28.58;101833.53;5031903;28;20101;-62
2022/05/19 04:18:26;;;;;;;7.10;6.80;;;;;;;24.74;27.96;101843.66;5031747;28;20029;-61
2022/05/19 04:20:52;;;;;;;6.97;6.68;;;;;;;24.47;27.71;101837.09;5031996;28;20116;-62
2022/05/19 04:23:18;;;;;;;7.22;6.93;;;;;;;24.68;27.64;101841.91;5031847;28;20029;-62
2022/05/19 04:25:44;;;;;;;6.90;6.60;;;;;;;23.10;29.42;101839.59;5032115;28;20076;-61
2022/05/19 04:28:09;;;;;;;6.90;6.60;;;;;;;24.39;28.19;101843.69;5031939;28;20033;-61
2022/05/19 04:30:35;;;;;;;7.10;6.80;;;;;;;24.36;27.98;101837.88;5031739;28;20030;-62
2022/05/19 04:33:02;;;;;;;7.00;6.70;;;;;;;24.86;27.46;101843.66;5024438;28;20022;-62
2022/05/19 04:35:28;;;;;;;7.05;6.75;;;;;;;25.21;26.88;101851.78;5025076;28;20112;-63
2022/05/19 04:37:57;;;;;;;7.00;6.70;;;;;;;25.35;26.97;101845.00;5021788;28;20100;-62
2022/05/19 04:40:23;;;;;;;7.20;6.90;;;;;;;24.89;27.27;101842.34;5031542;28;20587;-62
2022/05/19 04:42:48;;;;;;;7.18;6.88;;;;;;;25.33;26.63;101847.13;5031330;28;20098;-64
2022/05/19 04:45:17;;;;;;;6.97;6.68;;;;;;;25.62;26.81;101850.69;5031301;28;20501;-63
2022/05/19 04:47:43;;;;;;;7.30;7.00;;;;;;;26.03;26.18;101846.03;5031817;28;20025;-63
2022/05/19 04:50:09;;;;;;;7.30;7.00;;;;;;;25.60;26.51;101852.81;5031240;28;20489;-62
2022/05/19 04:52:36;;;;;;;7.03;6.72;;;;;;;26.24;26.30;101847.19;5031113;28;20159;-62
2022/05/19 04:55:06;;;;;;;7.35;7.05;;;;;;;25.74;26.30;101844.41;5031472;28;20056;-64
2022/05/19 04:57:32;;;;;;;7.20;6.90;;;;;;;25.91;26.54;101845.25;5031523;28;20049;-62
2022/05/19 04:59:57;;;;;;;7.20;6.90;;;;;;;25.90;25.89;101843.63;5031432;28;20496;-62
2022/05/19 05:02:23;;;;;;;7.10;6.80;;;;;;;26.78;25.01;101841.22;5031379;28;20033;-62
2022/05/19 05:04:48;;;;;;;7.05;6.75;;;;;;;27.75;23.90;101846.81;5031730;28;20021;-63
2022/05/19 05:07:14;;;;;;;7.30;7.00;;;;;;;27.14;24.87;101848.84;5031343;28;20159;-62
2022/05/19 05:09:39;;;;;;;7.25;6.95;;;;;;;27.25;24.50;101849.81;5031748;28;20036;-62
2022/05/19 05:12:05;;;;;;;7.07;6.78;;;;;;;27.44;24.47;101848.38;5031495;28;20021;-62
2022/05/19 05:14:31;;;;;;;7.10;6.80;;;;;;;26.74;24.92;101848.28;5030993;28;20051;-63
2022/05/19 05:16:56;;;;;;;7.30;7.00;;;;;;;26.83;25.22;101844.03;5031030;28;20030;-63
2022/05/19 05:19:24;;;;;;;6.78;6.47;;;;;;;26.65;25.24;101843.22;5031541;28;20099;-62
2022/05/19 05:21:58;;;;;;;7.18;6.88;;;;;;;26.66;24.60;101846.78;5031237;28;20036;-63
2022/05/19 05:24:24;;;;;;;7.10;6.80;;;;;;;27.61;23.97;101848.28;5031692;28;20025;-63
2022/05/19 05:26:49;;;;;;;6.93;6.63;;;;;;;27.79;24.23;101844.41;5031228;28;20024;-63
2022/05/19 05:29:15;;;;;;;7.30;7.00;;;;;;;27.68;23.80;101848.09;5031213;28;20029;-62
2022/05/19 05:31:41;;;;;;;7.05;6.75;;;;;;;27.91;23.52;101836.91;5029685;28;20029;-63
2022/05/19 05:34:06;;;;;;;7.20;6.90;;;;;;;27.91;23.62;101841.50;5030752;28;20049;-63
2022/05/19 05:36:32;;;;;;;7.20;6.90;;;;;;;28.25;23.43;101840.19;5031015;28;20026;-62
2022/05/19 05:38:57;;;;;;;7.10;6.80;;;;;;;27.53;23.81;101841.38;5030953;28;20443;-62
2022/05/19 05:41:24;;;;;;;7.10;6.80;;;;;;;28.88;22.79;101841.19;5031047;28;20029;-63
2022/05/19 05:43:50;;;;;;;7.28;6.97;;;;;;;29.25;22.57;101840.28;5030781;28;20037;-63
2022/05/19 05:46:16;;;;;;;7.30;7.00;;;;;;;28.22;23.37;101835.25;5046372;28;20078;-62
2022/05/19 05:48:42;;;;;;;7.15;6.85;;;;;;;28.75;23.14;101838.09;5030938;28;20473;-62
2022/05/19 05:51:10;;;;;;;7.20;6.90;;;;;;;29.32;22.67;101832.66;5030988;28;20036;-62
2022/05/19 05:53:36;;;;;;;7.07;6.78;;;;;;;29.10;22.50;101834.75;5032978;28;20040;-62
2022/05/19 05:56:04;;;;;;;6.97;6.68;;;;;;;28.93;22.91;101837.66;5035036;28;20068;-63
2022/05/19 05:58:30;;;;;;;7.10;6.80;;;;;;;29.09;22.23;101831.19;5033255;28;20085;-63
2022/05/19 06:00:56;;;;;;;7.20;6.90;;;;;;;29.30;22.16;101839.44;5025689;28;20159;-63
2022/05/19 06:03:22;;;;;;;7.13;6.82;;;;;;;29.87;22.10;101842.06;5034710;28;20468;-62
2022/05/19 06:05:47;;;;;;;6.97;6.68;;;;;;;29.86;21.41;101839.63;5034689;28;20045;-62
2022/05/19 06:08:13;;;;;;;7.13;6.82;;;;;;;30.11;21.18;101836.91;5023406;28;20018;-62
2022/05/19 06:10:39;;;;;;;7.20;6.90;;;;;;;28.75;22.91;101835.38;5020899;28;20122;-62
2022/05/19 06:13:05;;;;;;;7.20;6.90;;;;;;;29.09;22.46;101835.84;5033919;28;20480;-63
2022/05/19 06:15:31;;;;;;;7.20;6.90;;;;;;;29.63;21.56;101835.47;5032523;28;20033;-62
2022/05/19 06:17:57;;;;;;;7.22;6.93;;;;;;;30.02;21.28;101830.31;5045404;28;20040;-63
2022/05/19 06:20:24;;;;;;;7.05;6.75;;;;;;;30.11;21.17;101841.56;5028265;28;20087;-62
2022/05/19 06:22:49;;;;;;;6.93;6.63;;;;;;;29.68;21.55;101832.75;5034411;28;20378;-63
2022/05/19 06:25:18;;;;;;;6.90;6.60;;;;;;;30.29;21.01;101832.00;5034194;28;20029;-63
2022/05/19 06:27:45;;;;;;;7.20;6.90;;;;;;;30.99;20.40;101841.16;5031450;28;20029;-62
2022/05/19 06:30:12;;;;;;;7.10;6.80;;;;;;;30.30;21.02;101842.66;5023087;28;20079;-63
2022/05/19 06:32:39;;;;;;;7.10;6.80;;;;;;;31.08;20.21;101840.31;5033956;28;20112;-63
2022/05/19 06:35:06;;;;;;;7.05;6.75;;;;;;;30.97;20.50;101837.88;5034190;28;20028;-63
2022/05/19 06:37:32;;;;;;;7.20;6.90;;;;;;;28.43;22.38;101840.91;5021897;28;20362;-63
2022/05/19 06:39:58;;;;;;;7.20;6.90;;;;;;;30.14;21.47;101846.50;5033517;28;20036;-63
2022/05/19 06:42:23;;;;;;;7.20;6.90;;;;;;;31.44;20.14;101847.56;5033724;28;20017;-63
2022/05/19 06:44:50;;;;;;;7.30;7.00;;;;;;;30.31;20.50;101830.59;5033509;28;20121;-64
2022/05/19 06:47:17;;;;;;;7.10;6.80;;;;;;;31.05;20.09;101840.03;5033440;28;20052;-62
2022/05/19 06:49:48;;;;;;;7.28;6.97;;;;;;;31.76;19.06;101834.19;5033904;28;20025;-63
2022/05/19 06:52:17;;;;;;;6.97;6.68;;;;;;;30.54;20.42;101830.00;5033808;28;20056;-62
2022/05/19 06:54:47;;;;;;;7.20;6.90;;;;;;;30.80;19.65;101835.47;5033413;28;20021;-62
2022/05/19 06:57:13;;;;;;;7.18;6.88;;;;;;;30.07;20.12;101837.72;5033045;28;20095;-62
2022/05/19 06:59:39;;;;;;;6.90;6.60;;;;;;;31.32;18.67;101834.19;5033559;28;20017;-63
2022/05/19 07:02:06;;;;;;;7.20;6.90;;;;;;;31.37;19.45;101841.56;5033541;28;20550;-63
2022/05/19 07:04:32;;;;;;;6.90;6.60;;;;;;;30.32;20.20;101834.97;5033039;28;20071;-63
2022/05/19 07:06:59;;;;;;;6.82;6.53;;;;;;;30.10;20.66;101831.72;5033629;28;20025;-63
2022/05/19 07:09:25;;;;;;;7.00;6.70;;;;;;;30.18;19.99;101826.50;5033473;28;20021;-63
2022/05/19 07:11:50;;;;;;;6.75;6.45;;;;;;;30.52;19.44;101829.47;5033177;28;20036;-63
2022/05/19 07:14:16;;;;;;;6.90;6.60;;;;;;;29.30;20.05;101821.13;5032905;28;20075;-63
2022/05/19 07:16:44;;;;;;;7.15;6.85;;;;;;;28.78;20.70;101819.25;5033061;28;20545;-62
2022/05/19 07:21:55;;;;;;;6.97;6.68;;;;;;;31.21;18.50;101824.31;5033289;28;20106;-63
2022/05/19 07:24:22;;;;;;;7.07;6.78;;;;;;;30.81;18.26;101823.41;5027199;28;20481;-64
2022/05/19 07:26:54;;;;;;;6.95;6.65;;;;;;;31.32;18.34;101823.22;5033067;28;20025;-62
2022/05/19 07:29:21;;;;;;;7.00;6.70;;;;;;;31.20;18.18;101823.50;5015901;28;20083;-63
2022/05/19 07:31:47;;;;;;;7.10;6.80;;;;;;;31.80;17.45;101817.97;5032992;28;20105;-63
2022/05/19 07:34:16;;;;;;;6.95;6.65;;;;;;;31.12;17.63;101812.31;5029629;28;20049;-63
2022/05/19 07:36:41;;;;;;;6.95;6.65;;;;;;;29.63;18.35;101805.41;5027220;28;20033;-63
2022/05/19 07:39:08;;;;;;;6.97;6.68;;;;;;;29.72;18.30;101814.69;5032611;28;20105;-63
2022/05/19 07:41:34;;;;;;;6.78;6.47;;;;;;;28.51;19.52;101813.13;5030462;28;20029;-63
2022/05/19 07:44:00;;;;;;;6.70;6.40;;;;;;;29.27;18.95;101810.75;5032696;28;20119;-63
2022/05/19 07:46:28;;;;;;;6.85;6.55;;;;;;;27.75;20.05;101802.38;5033030;28;20067;-63
2022/05/19 07:48:56;;;;;;;6.90;6.60;;;;;;;27.61;20.45;101795.66;5032780;28;20127;-63
2022/05/19 07:51:23;;;;;;;6.68;6.38;;;;;;;25.79;22.80;101788.25;5032534;28;20021;-62
2022/05/19 07:53:50;;;;;;;7.10;6.80;;;;;;;27.64;20.90;101790.53;5032129;28;20116;-63
2022/05/19 07:56:15;;;;;;;6.68;6.38;;;;;;;26.89;21.48;101791.28;5032356;28;20152;-63
2022/05/19 07:58:41;;;;;;;6.78;6.47;;;;;;;27.44;21.45;101790.31;5032543;28;20441;-63
2022/05/19 08:01:07;;;;;;;6.97;6.68;;;;;;;25.52;23.14;101781.75;5022610;28;20111;-63
2022/05/19 08:03:34;;;;;;;6.88;6.57;;;;;;;24.89;23.48;101786.16;5032181;28;20299;-63
2022/05/19 08:06:00;;;;;;;6.78;6.47;;;;;;;24.95;23.87;101787.09;5030934;28;20053;-63
2022/05/19 08:08:25;;;;;;;6.80;6.50;;;;;;;25.68;22.51;101778.22;5032188;28;20444;-63
2022/05/19 08:10:53;;;;;;;6.57;6.28;;;;;;;25.19;22.83;101785.19;5032316;28;20112;-63
2022/05/19 08:16:03;;;;;;;6.90;6.60;;;;;;;26.20;21.95;101794.34;5018748;28;20037;-63
2022/05/19 08:18:30;;;;;;;7.00;6.70;;;;;;;25.41;23.27;101777.19;5032172;28;20401;-62
2022/05/19 08:20:58;;;;;;;7.00;6.70;;;;;;;26.08;22.02;101772.69;5030861;28;20040;-62
2022/05/19 08:23:30;;;;;;;6.90;6.60;;;;;;;25.15;23.33;101782.13;5032074;28;20179;-62
2022/05/19 08:25:56;;;;;;;7.00;6.70;;;;;;;24.12;24.55;101766.50;5032045;28;20396;-63
2022/05/19 08:28:29;;;;;;;6.80;6.50;;;;;;;24.00;24.96;101774.63;5030945;28;20034;-63
2022/05/19 08:30:59;;;;;;;6.90;6.60;;;;;;;24.65;24.36;101771.00;5020605;28;20037;-63
2022/05/19 08:33:25;;;;;;;7.10;6.80;;;;;;;24.35;23.48;101774.69;5032075;28;20426;-63
2022/05/19 08:35:52;;;;;;;6.80;6.50;;;;;;;24.92;23.87;101774.84;5032154;28;20091;-63
2022/05/19 08:38:18;;;;;;;6.82;6.53;;;;;;;25.57;22.35;101785.38;5031669;28;20057;-63
2022/05/19 08:40:52;;;;;;;7.07;6.78;;;;;;;25.02;22.32;101783.19;5032231;28;20063;-64
2022/05/19 08:43:22;;;;;;;6.72;6.43;;;;;;;23.49;22.86;101767.84;5030357;28;20028;-61
2022/05/19 08:45:52;;;;;;;7.15;6.85;;;;;;;23.62;23.31;101772.28;5031745;28;20071;-63
2022/05/19 08:48:21;;;;;;;6.72;6.43;;;;;;;23.60;24.08;101763.56;5031589;28;20025;-62
2022/05/19 08:50:50;;;;;;;6.78;6.47;;;;;;;24.56;23.14;101772.44;5025204;28;20025;-63
2022/05/19 08:53:16;;;;;;;6.88;6.57;;;;;;;24.21;23.68;101762.38;5031462;28;20025;-63
2022/05/19 08:55:50;;;;;;;6.80;6.50;;;;;;;24.11;23.68;101754.00;5031547;28;20095;-63
2022/05/19 08:58:25;;;;;;;6.57;6.28;;;;;;;22.78;23.22;101744.19;5029869;28;20049;-62
2022/05/19 09:01:01;;;;;;;7.18;6.88;;;;;;;23.07;22.97;101757.00;5031491;28;20612;-62
2022/05/19 09:03:37;;;;;;;6.80;6.50;;;;;;;23.79;22.39;101753.47;5022868;28;20018;-63
2022/05/19 09:06:16;;;;;;;6.63;6.32;;;;;;;23.99;23.03;101754.81;5031776;28;20427;-64
2022/05/19 09:08:54;;;;;;;6.50;6.20;;;;;;;23.49;23.71;101753.50;5022369;28;20021;-63
2022/05/19 09:11:25;;;;;;;6.80;6.50;;;;;;;24.08;22.44;101740.91;5031326;28;20033;-63
2022/05/19 09:14:00;;;;;;;6.80;6.50;;;;;;;24.22;22.73;101742.34;5031434;28;20072;-63
2022/05/19 09:16:29;;;;;;;6.65;6.35;;;;;;;23.89;23.08;101751.88;5025846;28;20112;-63
2022/05/19 09:19:16;;;;;;;6.90;6.60;;;;;;;22.68;23.64;101754.69;5031423;28;20411;-64
2022/05/19 09:21:44;;;;;;;6.80;6.50;;;;;;;22.37;24.69;101761.06;5031779;28;20028;-63
2022/05/19 09:24:11;;;;;;;6.80;6.50;;;;;;;23.28;24.37;101755.69;5031179;28;20025;-63
2022/05/19 09:26:52;;;;;;;7.20;6.90;;;;;;;23.49;24.34;101745.38;5031299;28;20053;-63
2022/05/19 09:29:22;;;;;;;6.60;6.30;;;;;;;23.91;24.22;101752.44;5034358;28;20039;-62
2022/05/19 09:31:53;;;;;;;6.70;6.40;;;;;;;23.48;24.75;101749.13;5034779;28;20091;-63
2022/05/19 09:34:23;;;;;;;6.80;6.50;;;;;;;23.11;24.96;101738.41;5023571;28;20396;-63
2022/05/19 09:37:38;;;;;;;7.00;6.70;;;;;;;23.34;24.89;101745.78;5019800;28;20033;-63
2022/05/19 09:40:11;;;;;;;6.70;6.40;;;;;;;23.05;25.07;101728.47;5028382;28;20065;-63
2022/05/19 09:42:48;;;;;;;6.90;6.60;;;;;;;23.32;24.64;101739.78;5036000;28;20261;-62
2022/05/19 09:45:14;;;;;;;6.72;6.43;;;;;;;23.23;24.81;101741.16;5021321;28;20077;-61
2022/05/19 09:47:45;;;;;;;6.78;6.47;;;;;;;23.38;24.13;101736.97;5034891;28;20032;-64
2022/05/19 09:50:22;;;;;;;6.55;6.25;;;;;;;22.46;25.08;101727.25;5032756;28;20385;-62
2022/05/19 09:52:47;;;;;;;6.90;6.60;;;;;;;21.97;25.66;101712.75;5024359;28;20469;-63
2022/05/19 09:55:16;;;;;;;6.88;6.57;;;;;;;22.27;25.60;101734.53;5034471;28;20033;-63
2022/05/19 09:57:51;;;;;;;6.78;6.47;;;;;;;22.40;25.24;101722.75;5034519;28;20025;-63
2022/05/19 10:00:25;;;;;;;6.97;6.68;;;;;;;22.47;26.01;101721.63;5033353;28;20086;-63
2022/05/19 10:02:55;;;;;;;6.70;6.40;;;;;;;21.97;26.54;101723.56;5029917;28;20432;-61
2022/05/19 10:05:33;;;;;;;6.82;6.53;;;;;;;22.57;26.21;101715.72;5034170;28;20025;-62
2022/05/19 10:08:07;;;;;;;6.55;6.25;;;;;;;21.60;26.80;101703.72;5023911;28;20032;-61
2022/05/19 10:10:45;;;;;;;6.60;6.30;;;;;;;22.12;25.54;101707.03;5033241;28;20128;-63
2022/05/19 10:13:14;;;;;;;6.72;6.43;;;;;;;21.95;24.89;101707.56;5033755;28;20565;-63
2022/05/19 10:15:55;;;;;;;6.80;6.50;;;;;;;21.68;25.16;101703.44;5034093;28;20033;-63
2022/05/19 10:18:30;;;;;;;6.57;6.28;;;;;;;21.16;25.18;101703.53;5034060;28;20032;-64
2022/05/19 10:21:21;;;;;;;6.60;6.30;;;;;;;21.30;24.96;101692.66;5033886;28;20022;-63
2022/05/19 10:23:59;;;;;;;6.72;6.43;;;;;;;21.40;25.33;101691.16;5033923;28;20025;-63
2022/05/19 10:26:47;;;;;;;6.80;6.50;;;;;;;21.65;25.31;101696.56;5033745;28;20048;-63
2022/05/19 10:32:53;;;;;;;6.50;6.20;;;;;;;21.68;26.58;101685.34;5014691;28;20029;-64
2022/05/19 10:35:35;;;;;;;6.75;6.45;;;;;;;21.22;27.02;101678.34;5033525;28;20049;-61
2022/05/19 10:38:28;;;;;;;6.80;6.50;;;;;;;21.51;26.99;101676.13;5033466;28;20087;-63
2022/05/19 10:41:03;;;;;;;7.10;6.80;;;;;;;21.45;26.63;101677.84;5033066;28;20258;-63
2022/05/19 10:44:07;;;;;;;6.82;6.53;;;;;;;21.18;26.15;101669.06;5028910;28;20057;-64
2022/05/19 10:46:51;;;;;;;6.95;6.65;;;;;;;21.48;26.38;101666.59;5025839;28;20033;-63
2022/05/19 10:49:42;;;;;;;6.60;6.30;;;;;;;21.17;27.06;101672.81;5032178;28;20041;-62
2022/05/19 10:52:29;;;;;;;6.70;6.40;;;;;;;22.05;26.91;101670.06;5021853;28;20048;-63
2022/05/19 10:55:06;;;;;;;7.05;6.75;;;;;;;21.61;26.04;101672.94;5033006;28;20025;-63
2022/05/19 10:58:01;;;;;;;7.28;6.97;;;;;;;21.85;25.91;101663.19;5033356;28;20035;-63
2022/05/19 11:00:42;;;;;;;6.30;6.05;;;;;;;21.74;25.27;101662.00;5014919;28;20102;-63
2022/05/19 11:03:37;;;;;;;6.97;6.68;;;;;;;21.77;25.17;101664.28;5033368;28;20026;-63
2022/05/19 11:06:11;;;;;;;6.45;6.15;;;;;;;21.91;25.54;101656.91;5033630;28;20029;-63
2022/05/19 11:09:13;;;;;;;6.80;6.50;;;;;;;22.28;25.69;101647.00;5033171;28;20025;-63
2022/05/19 11:11:51;;;;;;;6.75;6.45;;;;;;;22.19;25.39;101645.63;5025547;28;20041;-62
2022/05/19 11:14:44;;;;;;;6.60;6.30;;;;;;;21.42;25.53;101650.44;5033217;28;20502;-62
2022/05/19 11:17:15;;;;;;;6.80;6.50;;;;;;;21.40;26.40;101633.66;5033245;28;20035;-64
2022/05/19 11:20:04;;;;;;;6.70;6.40;;;;;;;21.73;25.60;101645.00;5030670;28;20033;-63
2022/05/19 11:22:34;;;;;;;6.80;6.50;;;;;;;21.98;25.34;101636.88;5013321;28;20057;-62
2022/05/19 11:28:18;;;;;;;6.80;6.50;;;;;;;22.22;25.38;101635.19;5032608;28;20144;-64
2022/05/19 11:30:58;;;;;;;6.85;6.55;;;;;;;21.98;25.52;101631.47;5032524;28;20064;-63
2022/05/19 11:33:30;;;;;;;7.15;6.85;;;;;;;22.40;25.70;101618.16;5032942;28;20072;-62
2022/05/19 11:36:00;;;;;;;6.90;6.60;;;;;;;22.43;25.73;101615.00;5012626;28;20145;-63
2022/05/19 11:38:42;;;;;;;6.55;6.25;;;;;;;21.84;26.43;101621.00;5026176;28;20087;-63
2022/05/19 11:41:14;;;;;;;6.90;6.60;;;;;;;22.16;26.40;101622.56;5028558;28;20024;-63
2022/05/19 11:44:19;;;;;;;7.00;6.70;;;;;;;22.07;26.31;101610.38;5032364;28;20025;-63
2022/05/19 11:47:04;;;;;;;6.60;6.30;;;;;;;22.28;26.25;101614.56;5021813;28;20038;-63
2022/05/19 11:55:40;;;;;;;6.47;6.18;;;;;;;22.47;26.23;101604.53;5032656;28;20040;-64
2022/05/19 11:58:28;;;;;;;6.40;6.10;;;;;;;22.55;25.99;101596.13;5032482;28;20037;-64
2022/05/19 12:01:14;;;;;;;6.60;6.30;;;;;;;22.43;25.55;101579.00;5031321;28;20052;-62